Time;durP1;ratioP1;P1;durP2;ratioP2;P2;SDS_P1;SDS_P2;PMS_P1;PMS_P2;Temp;Humidity;BMP_temperature;BMP_pressure;BME280_temperature;BME280_humidity;BME280_pressure;Samples;Min_cycle;Max_cycle;Signal;HPM_P1;HPM_P2
2022/01/11 00:01:26;;;;;;;24.35;16.20;;;;;;;;;;5049690;28;20224;-85
2022/01/11 00:03:54;;;;;;;23.15;14.45;;;1.70;99.90;;;;;;5048464;28;20729;-85
2022/01/11 00:06:30;;;;;;;20.30;15.43;;;;;;;;;;5052144;28;20200;-85
2022/01/11 00:09:04;;;;;;;20.88;16.20;;;;;;;;;;5058653;28;20230;-84
2022/01/11 00:11:32;;;;;;;23.63;14.30;;;;;;;;;;5058195;28;20253;-83
2022/01/11 00:13:59;;;;;;;23.60;16.40;;;;;;;;;;5051409;28;20539;-84
2022/01/11 00:16:26;;;;;;;17.90;13.20;;;;;;;;;;5047730;28;20643;-84
2022/01/11 00:18:55;;;;;;;22.30;14.98;;;;;;;;;;5048044;28;20714;-83
2022/01/11 00:21:22;;;;;;;21.42;14.60;;;;;;;;;;5049629;28;20674;-83
2022/01/11 00:26:34;;;;;;;22.52;15.05;;;;;;;;;;5054732;28;20282;-83
2022/01/11 00:29:01;;;;;;;22.83;14.55;;;;;;;;;;5048181;28;20228;-84
2022/01/11 00:31:28;;;;;;;20.15;14.25;;;;;;;;;;5054478;28;20231;-84
2022/01/11 00:33:57;;;;;;;25.92;16.65;;;;;;;;;;5045192;28;20258;-84
2022/01/11 00:36:31;;;;;;;26.00;15.30;;;;;;;;;;5054885;28;20212;-84
2022/01/11 00:38:59;;;;;;;24.67;13.40;;;;;;;;;;5055368;28;20301;-84
2022/01/11 00:41:26;;;;;;;23.70;15.40;;;;;;;;;;5055137;28;20239;-84
2022/01/11 00:43:53;;;;;;;19.83;12.68;;;;;;;;;;5051754;28;20196;-84
2022/01/11 00:46:20;;;;;;;24.67;16.33;;;;;;;;;;5047239;28;20212;-85
2022/01/11 00:48:47;;;;;;;25.52;16.27;;;;;;;;;;5047577;28;20220;-84
2022/01/11 00:51:16;;;;;;;22.10;14.50;;;;;;;;;;5050440;28;20233;-84
2022/01/11 00:53:43;;;;;;;27.42;15.40;;;;;;;;;;5049065;28;20242;-84
2022/01/11 00:56:10;;;;;;;24.27;14.60;;;;;;;;;;5057437;28;20258;-84
2022/01/11 00:58:37;;;;;;;22.80;15.43;;;;;;;;;;5051150;28;20220;-85
2022/01/11 01:01:05;;;;;;;18.83;12.98;;;;;;;;;;5058122;28;20689;-84
2022/01/11 01:03:32;;;;;;;26.00;14.93;;;;;;;;;;5044446;28;20326;-84
2022/01/11 01:05:59;;;;;;;22.42;14.77;;;;;;;;;;5055962;28;20740;-84
2022/01/11 01:08:28;;;;;;;23.10;14.18;;;;;;;;;;5043977;28;20208;-84
2022/01/11 01:10:57;;;;;;;18.65;13.77;;;;;;;;;;5059292;28;20207;-84
2022/01/11 01:13:29;;;;;;;24.90;15.45;;;1.90;99.90;;;;;;5057442;28;20204;-84
2022/01/11 01:15:57;;;;;;;22.25;15.35;;;1.80;99.90;;;;;;5062318;28;20231;-83
2022/01/11 01:18:27;;;;;;;33.13;16.30;;;4.30;99.90;;;;;;5054588;28;20223;-84
2022/01/11 01:20:56;;;;;;;23.70;15.55;;;1.80;99.90;;;;;;5056461;28;20208;-83
2022/01/11 01:23:24;;;;;;;27.73;14.65;;;;;;;;;;5051301;28;20820;-84
2022/01/11 01:25:54;;;;;;;27.20;15.35;;;;;;;;;;5052051;28;20201;-83
2022/01/11 01:28:23;;;;;;;22.95;14.98;;;;;;;;;;5053265;28;20206;-83
2022/01/11 01:30:52;;;;;;;18.65;13.60;;;1.90;99.90;;;;;;5058210;28;20547;-84
2022/01/11 01:33:20;;;;;;;25.85;15.50;;;;;;;;;;5055413;28;20291;-84
2022/01/11 01:35:52;;;;;;;23.35;15.45;;;;;;;;;;5054750;28;20200;-84
2022/01/11 01:38:23;;;;;;;18.83;15.05;;;;;;;;;;5053964;28;20207;-83
2022/01/11 01:40:52;;;;;;;23.17;14.38;;;1.80;99.90;;;;;;5047393;28;20285;-84
2022/01/11 01:43:20;;;;;;;16.88;13.02;;;;;;;;;;5053762;28;20204;-84
2022/01/11 01:45:49;;;;;;;23.15;14.32;;;;;;;;;;5055811;28;21008;-83
2022/01/11 01:48:17;;;;;;;19.35;14.25;;;;;;;;;;5052099;28;20227;-84
2022/01/11 01:50:45;;;;;;;20.73;14.23;;;1.90;99.90;;;;;;5053424;28;20550;-84
2022/01/11 01:53:14;;;;;;;23.30;14.55;;;2.10;99.90;;;;;;5054656;28;20200;-83
2022/01/11 01:55:43;;;;;;;23.02;14.27;;;1.90;99.90;;;;;;5057502;28;20199;-84
2022/01/11 01:58:10;;;;;;;27.33;15.23;;;;;;;;;;5052573;28;20557;-84
2022/01/11 02:00:43;;;;;;;26.80;16.23;;;;;;;;;;5053377;28;20220;-84
2022/01/11 02:03:12;;;;;;;23.27;16.13;;;1.90;99.90;;;;;;5056365;28;20654;-84
2022/01/11 02:05:40;;;;;;;25.85;16.80;;;;;;;;;;5055886;28;20665;-84
2022/01/11 02:08:08;;;;;;;27.73;17.17;;;;;;;;;;5052973;28;20218;-84
2022/01/11 02:10:38;;;;;;;26.10;16.58;;;1.90;99.90;;;;;;5050809;28;20204;-84
2022/01/11 02:13:08;;;;;;;26.17;16.88;;;;;;;;;;5054947;28;20196;-84
2022/01/11 02:15:36;;;;;;;26.85;16.88;;;;;;;;;;5056039;28;20200;-84
2022/01/11 02:18:13;;;;;;;23.75;16.00;;;1.90;99.90;;;;;;5053463;28;21159;-84
2022/01/11 02:20:44;;;;;;;27.17;17.20;;;;;;;;;;5051111;28;20235;-84
2022/01/11 02:23:11;;;;;;;32.85;17.00;;;;;;;;;;5051254;28;20555;-84
2022/01/11 02:25:39;;;;;;;31.25;18.10;;;;;;;;;;5055923;28;20281;-84
2022/01/11 02:28:10;;;;;;;29.80;18.10;;;2.00;99.90;;;;;;5056870;28;20262;-84
2022/01/11 02:30:38;;;;;;;25.98;18.00;;;;;;;;;;5056191;28;20196;-83
2022/01/11 02:33:23;;;;;;;27.45;17.85;;;;;;;;;;5057821;28;20203;-84
2022/01/11 02:35:53;;;;;;;26.92;15.40;;;1.80;99.90;;;;;;5043934;28;20204;-83
2022/01/11 02:38:20;;;;;;;23.13;16.42;;;;;;;;;;5049208;28;20203;-83
2022/01/11 02:40:47;;;;;;;27.27;15.95;;;;;;;;;;5045082;28;20233;-83
2022/01/11 02:43:15;;;;;;;24.98;18.05;;;;;;;;;;5054903;28;20226;-83
2022/01/11 02:45:42;;;;;;;31.65;19.13;;;;;;;;;;5051018;28;20203;-83
2022/01/11 02:48:09;;;;;;;31.55;19.65;;;;;;;;;;5046062;28;20206;-83
2022/01/11 02:50:37;;;;;;;37.90;18.27;;;;;;;;;;5049422;28;20274;-83
2022/01/11 02:53:06;;;;;;;30.08;18.58;;;;;;;;;;5055303;28;20204;-83
2022/01/11 02:55:37;;;;;;;26.55;18.35;;;1.70;99.90;;;;;;5054779;28;20200;-85
2022/01/11 02:58:04;;;;;;;29.25;18.52;;;;;;;;;;5055787;28;20642;-82
2022/01/11 03:00:32;;;;;;;38.53;19.52;;;1.80;99.90;;;;;;5052781;28;20579;-82
2022/01/11 03:03:09;;;;;;;36.17;17.88;;;;;;;;;;5048095;28;20204;-83
2022/01/11 03:05:36;;;;;;;34.40;19.48;;;;;;;;;;5057023;28;20214;-83
2022/01/11 03:08:04;;;;;;;31.85;19.92;;;;;;;;;;5051189;28;20192;-83
2022/01/11 03:10:33;;;;;;;30.15;20.40;;;1.80;99.90;;;;;;5055243;28;20213;-83
2022/01/11 03:13:00;;;;;;;29.80;19.98;;;;;;;;;;5053025;28;20700;-83
2022/01/11 03:15:27;;;;;;;29.35;18.02;;;;;;;;;;5052183;28;20268;-84
2022/01/11 03:17:55;;;;;;;33.42;19.48;;;;;;;;;;5049846;28;20212;-83
2022/01/11 03:20:22;;;;;;;33.65;19.23;;;;;;;;;;5048620;28;20627;-83
2022/01/11 03:22:50;;;;;;;28.92;18.95;;;;;;;;;;5056189;28;20203;-83
2022/01/11 03:25:17;;;;;;;32.90;19.20;;;;;;;;;;5052460;28;20204;-83
2022/01/11 03:27:46;;;;;;;27.17;18.65;;;1.70;99.90;;;;;;5054544;28;20285;-83
2022/01/11 03:30:14;;;;;;;33.20;19.02;;;;;;;;;;5055767;28;20541;-83
2022/01/11 03:32:41;;;;;;;30.33;19.83;;;;;;;;;;5047044;28;20239;-83
2022/01/11 03:35:11;;;;;;;31.23;18.75;;;1.90;99.90;;;;;;5054504;28;20591;-83
2022/01/11 03:37:39;;;;;;;32.67;18.55;;;1.80;99.90;;;;;;5057300;28;20211;-83
2022/01/11 03:40:08;;;;;;;31.30;19.08;;;1.60;99.90;;;;;;5052811;28;20238;-83
2022/01/11 03:42:35;;;;;;;30.55;18.58;;;;;;;;;;5055555;28;20202;-83
2022/01/11 03:45:06;;;;;;;33.97;19.38;;;1.90;99.90;;;;;;5050408;28;20203;-83
2022/01/11 03:47:33;;;;;;;31.52;17.13;;;;;;;;;;5057410;28;20334;-83
2022/01/11 03:50:03;;;;;;;33.50;19.27;;;;;;;;;;5052970;28;20203;-83
2022/01/11 03:52:30;;;;;;;32.20;17.63;;;;;;;;;;5055611;28;20207;-82
2022/01/11 03:55:05;;;;;;;31.55;17.58;;;;;;;;;;5051032;28;20195;-82
2022/01/11 03:57:33;;;;;;;31.00;18.00;;;1.80;99.90;;;;;;5052454;28;20214;-82
2022/01/11 04:00:05;;;;;;;33.33;18.77;;;1.90;99.90;;;;;;5051117;28;20227;-83
2022/01/11 04:02:32;;;;;;;35.15;16.38;;;;;;;;;;5057965;28;20211;-82
2022/01/11 04:04:59;;;;;;;26.75;17.67;;;;;;;;;;5058183;28;20207;-84
2022/01/11 04:07:28;;;;;;;26.92;18.95;;;1.80;99.90;;;;;;5057828;28;20750;-83
2022/01/11 04:09:56;;;;;;;25.65;17.95;;;1.80;99.90;;;;;;5056792;28;20208;-83
2022/01/11 04:12:24;;;;;;;31.45;17.50;;;;;;;;;;5057086;28;20196;-83
2022/01/11 04:14:51;;;;;;;27.02;17.45;;;;;;;;;;5062839;28;20264;-82
2022/01/11 04:17:20;;;;;;;30.60;18.42;;;1.60;99.90;;;;;;5055325;28;20207;-83
2022/01/11 04:19:47;;;;;;;27.60;17.30;;;;;;;;;;5055650;28;20235;-82
2022/01/11 04:22:14;;;;;;;24.75;16.85;;;;;;;;;;5058578;28;20691;-83
2022/01/11 04:24:42;;;;;;;32.75;19.08;;;;;;;;;;5056097;28;20200;-83
2022/01/11 04:27:09;;;;;;;28.27;18.50;;;;;;;;;;5054740;28;20638;-82
2022/01/11 04:29:36;;;;;;;22.85;17.17;;;;;;;;;;5052193;28;20204;-83
2022/01/11 04:32:04;;;;;;;28.70;17.17;;;;;;;;;;5055040;28;20277;-83
2022/01/11 04:34:32;;;;;;;26.35;16.27;;;;;;;;;;5047629;28;20203;-83
2022/01/11 04:37:00;;;;;;;21.92;15.50;;;;;;;;;;5054381;28;20214;-83
2022/01/11 04:39:27;;;;;;;27.40;15.98;;;;;;;;;;5054894;28;20222;-83
2022/01/11 04:41:54;;;;;;;32.25;18.00;;;;;;;;;;5060580;28;20219;-83
2022/01/11 04:44:21;;;;;;;29.75;16.98;;;;;;;;;;5057143;28;20291;-83
2022/01/11 04:46:49;;;;;;;32.90;18.35;;;;;;;;;;5058914;28;20206;-83
2022/01/11 04:49:16;;;;;;;26.83;18.02;;;;;;;;;;5054059;28;20624;-83
2022/01/11 04:51:46;;;;;;;23.98;17.02;;;;;;;;;;5059039;28;20270;-82
2022/01/11 04:54:14;;;;;;;31.83;18.92;;;;;;;;;;5056109;28;20220;-82
2022/01/11 04:56:41;;;;;;;27.05;17.35;;;1.60;99.90;;;;;;5060265;28;20211;-82
2022/01/11 04:59:08;;;;;;;31.42;17.25;;;;;;;;;;5053587;28;20270;-82
2022/01/11 05:01:36;;;;;;;44.15;19.58;;;;;;;;;;5058914;28;20234;-82
2022/01/11 05:04:03;;;;;;;30.40;18.35;;;;;;;;;;5052764;28;20203;-83
2022/01/11 05:06:30;;;;;;;33.45;19.88;;;;;;;;;;5053913;28;20208;-83
2022/01/11 05:08:59;;;;;;;26.70;18.70;;;;;;;;;;5054544;28;20196;-83
2022/01/11 05:11:26;;;;;;;35.05;18.70;;;;;;;;;;5057795;28;20666;-82
2022/01/11 05:13:53;;;;;;;33.55;18.75;;;;;;;;;;5051594;28;20196;-83
2022/01/11 05:16:21;;;;;;;30.95;17.67;;;;;;;;;;5058436;28;20203;-83
2022/01/11 05:18:48;;;;;;;29.13;17.67;;;;;;;;;;5039416;28;20215;-83
2022/01/11 05:21:15;;;;;;;34.60;18.77;;;;;;;;;;5051965;28;20227;-82
2022/01/11 05:23:42;;;;;;;25.70;17.80;;;;;;;;;;5059725;28;20207;-81
2022/01/11 05:26:11;;;;;;;30.58;17.15;;;1.70;99.90;;;;;;5058306;28;20662;-82
2022/01/11 05:28:38;;;;;;;34.88;18.35;;;;;;;;;;5054653;28;20199;-82
2022/01/11 05:31:05;;;;;;;28.92;20.20;;;;;;;;;;5058940;28;20718;-83
2022/01/11 05:33:33;;;;;;;28.13;17.48;;;;;;;;;;5057899;28;20196;-83
2022/01/11 05:36:00;;;;;;;43.03;18.90;;;;;;;;;;5058869;28;20200;-83
2022/01/11 05:38:27;;;;;;;33.10;18.40;;;;;;;;;;5054808;28;20653;-83
2022/01/11 05:40:56;;;;;;;45.05;19.15;;;;;;;;;;5060696;28;20227;-83
2022/01/11 05:43:25;;;;;;;29.20;19.15;;;;;;;;;;5053048;28;20242;-83
2022/01/11 05:45:52;;;;;;;33.20;18.17;;;;;;;;;;5055664;28;20891;-83
2022/01/11 05:48:20;;;;;;;37.67;20.48;;;;;;;;;;5052253;28;20192;-83
2022/01/11 05:50:48;;;;;;;27.45;19.65;;;;;;;;;;5057310;28;20219;-83
2022/01/11 05:53:15;;;;;;;28.92;18.70;;;;;;;;;;5052990;28;20200;-83
2022/01/11 05:55:42;;;;;;;25.85;18.17;;;;;;;;;;5059129;28;20318;-82
2022/01/11 05:58:10;;;;;;;28.60;18.75;;;;;;;;;;5050851;28;20208;-82
2022/01/11 06:00:38;;;;;;;28.88;20.48;;;;;;;;;;5055079;28;20641;-83
2022/01/11 06:03:06;;;;;;;28.38;18.00;;;;;;;;;;5052296;28;20200;-82
2022/01/11 06:05:37;;;;;;;26.05;18.90;;;;;;;;;;5051382;28;20203;-82
2022/01/11 06:08:05;;;;;;;29.15;18.20;;;;;;;;;;5048782;28;20220;-83
2022/01/11 06:10:32;;;;;;;27.10;19.08;;;;;;;;;;5047711;28;20200;-83
2022/01/11 06:12:59;;;;;;;33.63;22.30;;;;;;;;;;5055284;28;20195;-83
2022/01/11 06:15:29;;;;;;;31.40;17.85;;;;;;;;;;5054575;28;20208;-83
2022/01/11 06:17:57;;;;;;;31.60;20.23;;;;;;;;;;5041401;28;20242;-83
2022/01/11 06:20:25;;;;;;;26.55;18.40;;;;;;;;;;5047134;28;20689;-83
2022/01/11 06:22:53;;;;;;;34.58;19.08;;;;;;;;;;5054816;28;20242;-83
2022/01/11 06:25:20;;;;;;;30.70;20.00;;;;;;;;;;5056601;28;20204;-82
2022/01/11 06:27:47;;;;;;;25.90;19.27;;;2.00;99.90;;;;;;5058223;28;20199;-82
2022/01/11 06:30:16;;;;;;;26.85;18.58;;;2.00;99.90;;;;;;5049999;28;20257;-83
2022/01/11 06:32:44;;;;;;;28.45;17.15;;;;;;;;;;5056385;28;20207;-83
2022/01/11 06:35:14;;;;;;;28.67;17.67;;;2.10;99.90;;;;;;5050804;28;20272;-83
2022/01/11 06:37:42;;;;;;;28.65;17.13;;;;;;;;;;5049741;28;20199;-82
2022/01/11 06:40:10;;;;;;;30.50;17.70;;;2.10;99.90;;;;;;5051220;28;20261;-83
2022/01/11 06:42:37;;;;;;;26.60;18.40;;;;;;;;;;5056319;28;20262;-83
2022/01/11 06:45:05;;;;;;;23.88;16.58;;;2.10;99.90;;;;;;5053476;28;20261;-83
2022/01/11 06:47:33;;;;;;;24.75;17.45;;;;;;;;;;5053194;28;20200;-83
2022/01/11 06:50:00;;;;;;;24.33;15.98;;;;;;;;;;5043690;28;20819;-83
2022/01/11 06:52:28;;;;;;;35.33;18.98;;;;;;;;;;5024050;28;20220;-83
2022/01/11 06:54:56;;;;;;;30.50;21.20;;;;;;;;;;5046808;28;20749;-82
2022/01/11 06:57:24;;;;;;;29.95;19.75;;;;;;;;;;5056199;28;20598;-82
2022/01/11 06:59:51;;;;;;;30.10;18.88;;;;;;;;;;5052052;28;20230;-82
2022/01/11 07:02:18;;;;;;;23.60;16.92;;;;;;;;;;5056985;28;20289;-83
2022/01/11 07:04:46;;;;;;;24.30;17.95;;;;;;;;;;5052328;28;20749;-84
2022/01/11 07:07:12;;;;;;;32.58;18.77;;;2.00;99.90;;;;;;5055727;28;20211;-85
2022/01/11 07:09:41;;;;;;;24.27;17.08;;;2.10;99.90;;;;;;5056458;28;20221;-84
2022/01/11 07:12:09;;;;;;;25.25;17.55;;;1.90;99.90;;;;;;5056091;28;20244;-84
2022/01/11 07:14:36;;;;;;;33.70;19.77;;;;;;;;;;5051556;28;20204;-84
2022/01/11 07:17:04;;;;;;;21.27;15.65;;;2.00;99.90;;;;;;5052323;28;20735;-83
2022/01/11 07:19:31;;;;;;;26.95;17.17;;;;;;;;;;5051962;28;20755;-83
2022/01/11 07:21:59;;;;;;;30.90;18.90;;;;;;;;;;5052497;28;20239;-84
2022/01/11 07:24:26;;;;;;;28.40;17.50;;;2.10;99.90;;;;;;5049937;28;20694;-83
2022/01/11 07:26:55;;;;;;;30.92;18.00;;;;;;;;;;5056420;28;20362;-83
2022/01/11 07:29:23;;;;;;;25.98;16.70;;;;;;;;;;5052981;28;20211;-83
2022/01/11 07:31:50;;;;;;;27.83;17.65;;;2.10;99.90;;;;;;5056948;28;20211;-84
2022/01/11 07:34:17;;;;;;;33.67;18.33;;;;;;;;;;5050268;28;20650;-84
2022/01/11 07:36:45;;;;;;;24.85;17.55;;;;;;;;;;5055953;28;20224;-84
2022/01/11 07:39:13;;;;;;;26.58;17.70;;;2.20;99.90;;;;;;5050270;28;20204;-84
2022/01/11 07:41:41;;;;;;;25.60;17.65;;;;;;;;;;5054629;28;20251;-84
2022/01/11 07:44:09;;;;;;;25.83;16.75;;;;;;;;;;5050154;28;20204;-84
2022/01/11 07:46:38;;;;;;;19.80;14.50;;;2.20;99.90;;;;;;5057157;28;20262;-84
2022/01/11 07:49:06;;;;;;;26.80;15.15;;;;;;;;;;5054123;28;20205;-85
2022/01/11 07:51:33;;;;;;;25.83;16.90;;;;;;;;;;5058026;28;20219;-85
2022/01/11 07:54:00;;;;;;;18.42;13.25;;;;;;;;;;5055284;28;20253;-85
2022/01/11 07:56:27;;;;;;;19.55;12.60;;;;;;;;;;5054703;28;20261;-85
2022/01/11 07:58:55;;;;;;;21.25;13.70;;;;;;;;;;5055654;28;20246;-85
2022/01/11 08:01:23;;;;;;;18.85;13.35;;;;;;;;;;5052689;28;20223;-85
2022/01/11 08:03:51;;;;;;;20.00;12.60;;;;;;;;;;5055093;28;20290;-85
2022/01/11 08:06:18;;;;;;;16.27;12.65;;;;;;;;;;5053375;28;20205;-85
2022/01/11 08:08:45;;;;;;;20.88;14.48;;;;;;;;;;5055835;28;20238;-85
2022/01/11 08:11:13;;;;;;;22.52;12.63;;;;;;;;;;5046411;28;20196;-85
2022/01/11 08:13:40;;;;;;;18.40;12.57;;;;;;;;;;5060745;28;20603;-86
2022/01/11 08:16:08;;;;;;;16.50;12.00;;;;;;;;;;5055866;28;20210;-86
2022/01/11 08:18:40;;;;;;;18.92;12.65;;;;;;;;;;5049326;28;20757;-87
2022/01/11 08:21:08;;;;;;;23.05;14.55;;;;;;;;;;5053694;28;20235;-86
2022/01/11 08:23:35;;;;;;;24.23;16.13;;;;;;;;;;5054802;28;20219;-86
2022/01/11 08:26:03;;;;;;;32.42;17.38;;;2.50;99.90;;;;;;5040609;28;20314;-85
2022/01/11 08:28:31;;;;;;;27.92;17.02;;;;;;;;;;5048955;28;20203;-85
2022/01/11 08:30:58;;;;;;;24.92;17.20;;;;;;;;;;5049209;28;20204;-84
2022/01/11 08:33:26;;;;;;;31.30;19.38;;;;;;;;;;5045672;28;20588;-85
2022/01/11 08:35:55;;;;;;;27.52;17.73;;;;;;;;;;5046753;28;20207;-86
2022/01/11 08:38:22;;;;;;;31.38;18.83;;;;;;;;;;5046167;28;20204;-85
2022/01/11 08:40:50;;;;;;;24.17;16.55;;;;;;;;;;5049741;28;20282;-86
2022/01/11 08:43:17;;;;;;;24.08;17.48;;;;;;;;;;5048591;28;20277;-86
2022/01/11 08:45:44;;;;;;;27.75;18.27;;;;;;;;;;5046080;28;20208;-86
2022/01/11 08:48:12;;;;;;;24.17;17.27;;;;;;;;;;5047481;28;20192;-86
2022/01/11 08:50:39;;;;;;;29.63;20.45;;;;;;;;;;5050198;28;20202;-85
2022/01/11 08:53:08;;;;;;;32.97;21.38;;;;;;;;;;5049461;28;20199;-85
2022/01/11 08:55:35;;;;;;;33.45;19.70;;;;;;;;;;5051217;28;20547;-86
2022/01/11 08:58:02;;;;;;;33.90;17.75;;;;;;;;;;5052221;28;20254;-85
2022/01/11 09:00:30;;;;;;;28.88;19.80;;;;;;;;;;5053592;28;20590;-86
2022/01/11 09:02:57;;;;;;;27.75;19.95;;;;;;;;;;5058955;28;20626;-86
2022/01/11 09:05:25;;;;;;;29.90;20.75;;;;;;;;;;5047956;28;20207;-86
2022/01/11 09:07:52;;;;;;;27.05;20.15;;;;;;;;;;5050188;28;20246;-85
2022/01/11 09:10:21;;;;;;;26.13;18.15;;;;;;;;;;5055332;28;20219;-86
2022/01/11 09:12:48;;;;;;;31.45;19.60;;;;;;;;;;5050788;28;20196;-85
2022/01/11 09:15:16;;;;;;;30.80;19.52;;;;;;;;;;5046918;28;20204;-85
2022/01/11 09:17:43;;;;;;;26.90;18.00;;;2.80;99.90;;;;;;5054949;28;20265;-85
2022/01/11 09:20:12;;;;;;;25.75;17.73;;;;;;;;;;5052981;28;20665;-85
2022/01/11 09:22:39;;;;;;;29.05;20.40;;;;;;;;;;5049438;28;20243;-86
2022/01/11 09:25:07;;;;;;;36.42;18.02;;;2.80;99.90;;;;;;5050142;28;20204;-86
2022/01/11 09:27:36;;;;;;;33.00;18.10;;;;;;;;;;5059391;28;20557;-86
2022/01/11 09:30:06;;;;;;;24.35;16.85;;;2.80;99.90;;;;;;5056682;28;20203;-86
2022/01/11 09:32:35;;;;;;;26.95;17.80;;;;;;;;;;5054925;28;20199;-86
2022/01/11 09:35:02;;;;;;;30.02;17.73;;;;;;;;;;5055023;28;20224;-85
2022/01/11 09:37:29;;;;;;;24.15;17.30;;;;;;;;;;5054057;28;20204;-85
2022/01/11 09:39:57;;;;;;;33.83;18.23;;;;;;;;;;5059120;28;20548;-85
2022/01/11 09:42:24;;;;;;;24.38;16.92;;;3.20;99.90;;;;;;5054476;28;20245;-86
2022/01/11 09:44:53;;;;;;;25.15;17.33;;;3.00;99.90;;;;;;5053983;28;20273;-86
2022/01/11 09:47:20;;;;;;;21.75;16.95;;;;;;;;;;5053161;28;20200;-86
2022/01/11 09:49:47;;;;;;;30.13;16.92;;;;;;;;;;5052976;28;20211;-86
2022/01/11 09:52:15;;;;;;;22.25;16.50;;;3.20;99.90;;;;;;5061307;28;20653;-88
2022/01/11 09:54:44;;;;;;;27.80;17.23;;;3.30;99.90;;;;;;5052370;28;20203;-85
2022/01/11 09:57:11;;;;;;;24.08;16.48;;;;;;;;;;5053822;28;20290;-85
2022/01/11 09:59:53;;;;;;;26.73;16.73;;;;;;;;;;5049661;28;20204;-86
2022/01/11 10:02:22;;;;;;;17.25;14.20;;;;;;;;;;5053260;28;20231;-86
2022/01/11 10:04:56;;;;;;;18.20;12.80;;;3.50;99.90;;;;;;5053103;28;20188;-85
2022/01/11 10:07:30;;;;;;;14.27;11.20;;;3.50;99.90;;;;;;5057004;28;20210;-85
2022/01/11 10:09:57;;;;;;;19.63;11.70;;;3.00;99.90;;;;;;5046786;28;20198;-85
2022/01/11 10:12:24;;;;;;;17.77;11.93;;;;;;;;;;5061227;28;20230;-84
2022/01/11 10:14:53;;;;;;;21.10;13.07;;;3.50;99.90;;;;;;5058143;28;20572;-85
2022/01/11 10:17:27;;;;;;;15.02;11.20;;;3.80;99.90;;;;;;5053770;28;20216;-84
2022/01/11 10:20:02;;;;;;;17.27;11.35;;;3.80;99.90;;;;;;5054144;28;20222;-83
2022/01/11 10:22:30;;;;;;;14.90;10.52;;;;;;;;;;5052720;28;20226;-84
2022/01/11 10:24:59;;;;;;;20.30;11.00;;;3.80;99.90;;;;;;5051920;28;20204;-84
2022/01/11 10:27:28;;;;;;;14.70;11.00;;;;;;;;;;5049260;28;20220;-83
2022/01/11 10:29:58;;;;;;;18.65;11.13;;;3.80;99.90;;;;;;5055493;28;20208;-83
2022/01/11 10:32:30;;;;;;;17.80;11.40;;;;;;;;;;5059143;28;20214;-83
2022/01/11 10:34:59;;;;;;;18.38;10.48;;;3.70;99.90;;;;;;5048792;28;20213;-84
2022/01/11 10:37:35;;;;;;;11.00;9.13;;;4.00;99.90;;;;;;5060054;28;20203;-84
2022/01/11 10:40:04;;;;;;;15.57;9.43;;;;;;;;;;5053505;28;20196;-84
2022/01/11 10:42:33;;;;;;;12.85;9.50;;;;;;;;;;5054345;28;20242;-85
2022/01/11 10:45:03;;;;;;;13.30;9.30;;;4.10;99.90;;;;;;5048227;28;20229;-84
2022/01/11 10:47:34;;;;;;;12.48;8.50;;;4.10;99.90;;;;;;5051306;28;20744;-84
2022/01/11 10:50:04;;;;;;;11.52;7.50;;;4.10;99.90;;;;;;5040645;28;20267;-85
2022/01/11 10:52:34;;;;;;;12.77;8.93;;;4.00;99.90;;;;;;5044052;28;20185;-84
2022/01/11 10:55:03;;;;;;;17.23;9.70;;;;;;;;;;5041986;28;20725;-85
2022/01/11 10:57:32;;;;;;;14.95;9.07;;;4.10;99.90;;;;;;5044251;28;20243;-85
2022/01/11 11:00:30;;;;;;;12.43;8.68;;;4.20;99.90;;;;;;5048883;28;20208;-86
2022/01/11 11:03:01;;;;;;;10.82;6.90;;;4.20;99.90;;;;;;5052500;28;20248;-86
2022/01/11 11:05:34;;;;;;;10.10;7.95;;;4.30;99.90;;;;;;5054638;28;20203;-86
2022/01/11 11:08:12;;;;;;;10.88;8.48;;;4.30;99.90;;;;;;5051794;28;20207;-85
2022/01/11 11:10:50;;;;;;;14.07;8.32;;;4.30;99.90;;;;;;5053479;28;20544;-86
2022/01/11 11:13:26;;;;;;;15.05;10.38;;;4.40;99.90;;;;;;5047691;28;20618;-86
2022/01/11 11:15:54;;;;;;;11.20;8.18;;;4.40;99.90;;;;;;5053599;28;20207;-86
2022/01/11 11:18:26;;;;;;;9.68;7.22;;;4.50;99.90;;;;;;5055813;28;20211;-86
2022/01/11 11:20:53;;;;;;;9.02;6.65;;;;;;;;;;5054886;28;20204;-85
2022/01/11 11:23:20;;;;;;;12.02;6.72;;;;;;;;;;5048395;28;20236;-86
2022/01/11 11:25:48;;;;;;;11.75;6.63;;;;;;;;;;5047569;28;20742;-87
2022/01/11 11:28:16;;;;;;;7.18;6.43;;;;;;;;;;5055273;28;20519;-86
2022/01/11 11:30:48;;;;;;;7.20;6.15;;;4.50;98.80;;;;;;5056108;28;20276;-85
2022/01/11 11:33:15;;;;;;;6.50;5.90;;;;;;;;;;5055559;28;20209;-86
2022/01/11 11:35:44;;;;;;;11.70;6.75;;;;;;;;;;5056140;28;20203;-86
2022/01/11 11:38:12;;;;;;;7.00;5.82;;;;;;;;;;5053158;28;20281;-85
2022/01/11 11:40:39;;;;;;;7.55;6.28;;;4.80;97.90;;;;;;5043248;28;20220;-86
2022/01/11 11:43:07;;;;;;;6.50;5.15;;;;;;;;;;5055747;28;20224;-86
2022/01/11 11:45:38;;;;;;;8.35;5.72;;;4.80;96.70;;;;;;5056772;28;20284;-86
2022/01/11 11:48:07;;;;;;;5.97;4.93;;;4.60;97.20;;;;;;5054754;28;20200;-85
2022/01/11 11:50:46;;;;;;;5.53;5.03;;;4.60;97.50;;;;;;5050770;28;20208;-86
2022/01/11 11:53:23;;;;;;;6.30;5.18;;;4.60;97.80;;;;;;5048976;28;20386;-86
2022/01/11 11:55:50;;;;;;;9.57;6.60;;;;;;;;;;5052924;28;20222;-86
2022/01/11 11:58:20;;;;;;;7.75;5.75;;;;;;;;;;5046868;28;20204;-86
2022/01/11 12:00:47;;;;;;;5.82;4.90;;;;;;;;;;5052174;28;20990;-86
2022/01/11 12:03:24;;;;;;;8.50;6.15;;;4.60;99.90;;;;;;5048419;28;20223;-85
2022/01/11 12:05:53;;;;;;;10.10;7.60;;;4.60;97.70;;;;;;5053412;28;20212;-85
2022/01/11 12:08:41;;;;;;;11.50;8.95;;;;;;;;;;5053508;28;20227;-86
2022/01/11 12:11:11;;;;;;;5.82;5.22;;;4.50;96.60;;;;;;5059145;28;20207;-85
2022/01/11 12:13:40;;;;;;;7.47;5.38;;;4.60;96.00;;;;;;5048953;28;20294;-86
2022/01/11 12:16:41;;;;;;;12.40;8.63;;;4.50;97.20;;;;;;5055879;28;20210;-86
2022/01/11 12:19:14;;;;;;;11.75;8.23;;;4.60;97.40;;;;;;5048386;28;20218;-85
2022/01/11 12:22:06;;;;;;;9.35;6.82;;;4.50;97.00;;;;;;5052342;28;20200;-86
2022/01/11 12:24:38;;;;;;;8.60;5.45;;;4.60;97.30;;;;;;5044468;28;20728;-86
2022/01/11 12:27:09;;;;;;;5.35;3.67;;;4.70;95.50;;;;;;5043670;28;20215;-86
2022/01/11 12:29:37;;;;;;;11.10;4.10;;;;;;;;;;5051621;28;20210;-86
2022/01/11 12:32:07;;;;;;;4.13;3.33;;;4.80;94.40;;;;;;5052458;28;20221;-85
2022/01/11 12:34:53;;;;;;;8.13;3.47;;;;;;;;;;5051835;28;20300;-85
2022/01/11 12:37:33;;;;;;;4.63;3.80;;;4.70;94.90;;;;;;5056969;28;20208;-85
2022/01/11 12:40:23;;;;;;;3.63;3.22;;;4.70;95.30;;;;;;5051273;28;20690;-85
2022/01/11 12:43:00;;;;;;;4.22;3.83;;;4.70;95.30;;;;;;5045627;28;20239;-84
2022/01/11 12:46:00;;;;;;;5.03;3.85;;;4.50;93.70;;;;;;5050843;28;20230;-85
2022/01/11 12:48:53;;;;;;;18.55;4.28;;;4.70;93.30;;;;;;5053272;28;20564;-84
2022/01/11 12:51:34;;;;;;;4.15;3.30;;;4.70;93.80;;;;;;5054829;28;20204;-84
2022/01/11 12:54:22;;;;;;;10.18;3.42;;;4.60;94.10;;;;;;5045940;28;20204;-85
2022/01/11 12:56:52;;;;;;;4.43;4.00;;;4.60;94.40;;;;;;5048907;28;20208;-85
2022/01/11 12:59:21;;;;;;;7.30;4.63;;;4.50;93.80;;;;;;5047575;28;20206;-84
2022/01/11 13:01:59;;;;;;;4.80;3.00;;;4.50;94.30;;;;;;5054089;28;20289;-84
2022/01/11 13:04:40;;;;;;;4.88;4.18;;;4.50;94.10;;;;;;5052015;28;20232;-85
2022/01/11 13:07:19;;;;;;;4.20;3.80;;;4.50;94.20;;;;;;5046657;28;20196;-85
2022/01/11 13:09:48;;;;;;;3.58;2.95;;;4.50;93.90;;;;;;5047123;28;20274;-84
2022/01/11 13:12:26;;;;;;;3.85;3.50;;;;;;;;;;5052616;28;20203;-84
2022/01/11 13:15:08;;;;;;;3.35;3.05;;;4.50;93.50;;;;;;5059302;28;20202;-84
2022/01/11 13:17:47;;;;;;;3.30;2.97;;;;;;;;;;5055686;28;20242;-84
2022/01/11 13:20:15;;;;;;;4.65;3.92;;;;;;;;;;5058816;28;20317;-84
2022/01/11 13:23:03;;;;;;;3.53;3.20;;;4.40;93.90;;;;;;5053945;28;20640;-84
2022/01/11 13:25:38;;;;;;;4.50;3.45;;;4.40;94.40;;;;;;5054378;28;20204;-85
2022/01/11 13:28:06;;;;;;;4.40;3.30;;;;;;;;;;5049211;28;20286;-85
2022/01/11 13:30:43;;;;;;;3.92;3.42;;;4.30;94.30;;;;;;5054004;28;20684;-84
2022/01/11 13:33:12;;;;;;;4.72;4.05;;;;;;;;;;5056080;28;20208;-85
2022/01/11 13:35:39;;;;;;;4.45;3.85;;;;;;;;;;5055907;28;20204;-85
2022/01/11 13:38:11;;;;;;;5.82;4.68;;;;;;;;;;5054560;28;20294;-85
2022/01/11 13:40:40;;;;;;;5.30;3.67;;;4.40;94.40;;;;;;5050116;28;20191;-84
2022/01/11 13:43:11;;;;;;;5.68;4.40;;;;;;;;;;5052562;28;20236;-85
2022/01/11 13:45:42;;;;;;;4.30;3.90;;;4.30;93.90;;;;;;5053059;28;20207;-84
2022/01/11 13:48:10;;;;;;;4.88;4.38;;;;;;;;;;5051333;28;20614;-85
2022/01/11 13:50:47;;;;;;;6.97;5.20;;;;;;;;;;5053276;28;20227;-85
2022/01/11 13:53:20;;;;;;;6.22;4.25;;;;;;;;;;5055692;28;20248;-84
2022/01/11 13:55:48;;;;;;;6.20;5.13;;;;;;;;;;5052860;28;20239;-85
2022/01/11 13:58:17;;;;;;;6.72;4.32;;;4.30;93.70;;;;;;5055639;28;20196;-84
2022/01/11 14:00:46;;;;;;;6.10;5.40;;;4.30;94.20;;;;;;5051037;28;20242;-85
2022/01/11 14:03:17;;;;;;;7.07;4.20;;;4.20;94.20;;;;;;5048845;28;20250;-85